Time;durP1;ratioP1;P1;durP2;ratioP2;P2;SDS_P1;SDS_P2;PMS_P1;PMS_P2;Temp;Humidity;BMP_temperature;BMP_pressure;BME280_temperature;BME280_humidity;BME280_pressure;Samples;Min_cycle;Max_cycle;Signal;HPM_P1;HPM_P2
2021/06/06 00:00:50;;;;;;;4.40;3.92;;;17.20;99.90;;;;;;4857450;29;20464;-87
2021/06/06 00:03:21;;;;;;;3.75;3.45;;;17.00;99.90;;;;;;4862333;29;20391;-85
2021/06/06 00:05:53;;;;;;;4.60;3.83;;;17.00;99.90;;;;;;4836669;29;20413;-88
2021/06/06 00:08:18;;;;;;;5.15;3.35;;;16.90;99.90;;;;;;4873591;29;20539;-85
2021/06/06 00:10:44;;;;;;;4.50;3.93;;;16.90;99.90;;;;;;4858157;29;20410;-84
2021/06/06 00:13:13;;;;;;;3.83;3.53;;;17.00;99.90;;;;;;4867313;29;20472;-85
2021/06/06 00:15:43;;;;;;;3.80;3.50;;;16.90;99.90;;;;;;4853432;29;20418;-85
2021/06/06 00:18:09;;;;;;;4.32;3.92;;;16.90;99.90;;;;;;4862180;29;20397;-85
2021/06/06 00:20:37;;;;;;;3.88;3.58;;;16.80;99.90;;;;;;4866066;29;20835;-86
2021/06/06 00:23:03;;;;;;;3.80;3.50;;;16.80;99.90;;;;;;4856933;29;20438;-88
2021/06/06 00:25:29;;;;;;;4.40;3.20;;;16.80;99.90;;;;;;4866402;29;20463;-86
2021/06/06 00:27:54;;;;;;;4.20;3.80;;;16.70;99.90;;;;;;4857769;29;20404;-88
2021/06/06 00:30:20;;;;;;;3.47;3.20;;;16.80;99.90;;;;;;4857851;29;20522;-89
2021/06/06 00:32:46;;;;;;;3.90;3.60;;;16.70;99.90;;;;;;4873339;29;20417;-84
2021/06/06 00:35:12;;;;;;;3.38;3.15;;;16.60;99.90;;;;;;4856515;29;20420;-83
2021/06/06 00:37:38;;;;;;;4.57;3.67;;;16.60;99.90;;;;;;4849622;29;20411;-80
2021/06/06 00:40:06;;;;;;;4.25;3.42;;;16.50;99.90;;;;;;4856546;29;20426;-81
2021/06/06 00:42:32;;;;;;;3.45;3.22;;;16.50;99.90;;;;;;4838479;29;20412;-81
2021/06/06 00:45:03;;;;;;;3.60;3.30;;;16.50;99.90;;;;;;4848552;29;20404;-81
2021/06/06 00:47:29;;;;;;;3.85;3.55;;;16.30;99.90;;;;;;4852861;29;20690;-82
2021/06/06 00:49:56;;;;;;;3.45;3.15;;;16.30;99.90;;;;;;4847054;29;20411;-85
2021/06/06 00:52:22;;;;;;;4.13;3.72;;;16.10;99.90;;;;;;4832649;29;20410;-83
2021/06/06 00:54:48;;;;;;;3.70;3.40;;;16.20;99.90;;;;;;4864119;29;20476;-87
2021/06/06 00:57:20;;;;;;;4.30;3.97;;;16.10;99.90;;;;;;4849133;29;20446;-85
2021/06/06 00:59:58;;;;;;;4.60;3.50;;;16.00;99.90;;;;;;4848258;29;20985;-86
2021/06/06 01:02:24;;;;;;;4.30;3.90;;;15.90;99.90;;;;;;4843421;29;20424;-83
2021/06/06 01:04:52;;;;;;;4.28;3.72;;;15.90;99.90;;;;;;4846415;29;20468;-82
2021/06/06 01:07:18;;;;;;;4.28;3.90;;;15.80;99.90;;;;;;4850439;29;20981;-86
2021/06/06 01:09:44;;;;;;;3.78;3.47;;;15.80;99.90;;;;;;4860360;29;20405;-81
2021/06/06 01:12:22;;;;;;;5.25;3.90;;;15.80;99.90;;;;;;4853124;29;20410;-81
2021/06/06 01:14:57;;;;;;;4.50;4.10;;;15.80;99.90;;;;;;4861780;29;20470;-85
2021/06/06 01:17:38;;;;;;;6.10;3.75;;;15.70;99.90;;;;;;4854883;29;20492;-82
2021/06/06 01:20:12;;;;;;;4.35;3.92;;;15.60;99.90;;;;;;4859492;29;20404;-82
2021/06/06 01:22:45;;;;;;;4.20;3.80;;;15.60;99.90;;;;;;4833077;29;20470;-81
2021/06/06 01:25:19;;;;;;;4.70;3.92;;;15.50;99.90;;;;;;4859560;29;20402;-81
2021/06/06 01:27:50;;;;;;;3.75;3.40;;;15.50;99.90;;;;;;4844194;29;20409;-83
2021/06/06 01:30:22;;;;;;;3.70;3.40;;;15.40;99.90;;;;;;4843405;29;20525;-82
2021/06/06 01:33:07;;;;;;;3.88;3.53;;;15.40;99.90;;;;;;4857364;29;20944;-82
2021/06/06 01:35:34;;;;;;;4.55;4.10;;;15.30;99.90;;;;;;4845406;29;20421;-81
2021/06/06 01:38:09;;;;;;;4.05;3.65;;;15.20;99.90;;;;;;4843006;29;20415;-86
2021/06/06 01:40:35;;;;;;;3.90;3.60;;;15.20;99.90;;;;;;4842262;29;20422;-82
2021/06/06 01:43:04;;;;;;;4.65;3.42;;;15.10;99.90;;;;;;4847661;29;20474;-85
2021/06/06 01:45:40;;;;;;;3.70;3.40;;;15.10;99.90;;;;;;4849688;29;20416;-83
2021/06/06 01:48:09;;;;;;;4.47;4.07;;;15.10;99.90;;;;;;4851001;29;20427;-81
2021/06/06 01:50:59;;;;;;;3.63;3.33;;;15.10;99.90;;;;;;4850636;29;20429;-82
2021/06/06 01:53:26;;;;;;;4.45;3.90;;;15.10;99.90;;;;;;4830524;29;20430;-84
2021/06/06 01:56:00;;;;;;;3.90;3.58;;;15.00;99.90;;;;;;4849506;29;20452;-82
2021/06/06 01:58:34;;;;;;;3.97;3.58;;;15.00;99.90;;;;;;4865579;29;20477;-87
2021/06/06 02:01:15;;;;;;;4.57;4.18;;;15.00;99.90;;;;;;4866364;29;20427;-83
2021/06/06 02:03:41;;;;;;;4.72;4.00;;;15.00;99.90;;;;;;4842417;29;20417;-84
2021/06/06 02:06:14;;;;;;;4.07;3.78;;;14.90;99.90;;;;;;4850711;29;20920;-83
2021/06/06 02:08:40;;;;;;;4.60;4.20;;;14.90;99.90;;;;;;4841797;29;20416;-80
2021/06/06 02:11:34;;;;;;;4.10;3.70;;;14.80;99.90;;;;;;4834838;29;20414;-81
2021/06/06 02:14:05;;;;;;;4.05;3.75;;;14.80;99.90;;;;;;4837097;29;20420;-84
2021/06/06 02:16:39;;;;;;;4.03;3.72;;;14.70;99.90;;;;;;4844582;29;20468;-83
2021/06/06 02:19:13;;;;;;;4.40;3.80;;;14.70;99.90;;;;;;4856585;29;20497;-84
2021/06/06 02:21:43;;;;;;;4.67;4.20;;;14.70;99.90;;;;;;4852820;29;20467;-81
2021/06/06 02:24:13;;;;;;;4.37;4.00;;;14.70;99.90;;;;;;4851922;29;20432;-82
2021/06/06 02:26:57;;;;;;;4.57;4.18;;;14.60;99.90;;;;;;4848360;29;20480;-84
2021/06/06 02:29:55;;;;;;;4.88;4.03;;;14.50;99.90;;;;;;4856081;29;20475;-84
2021/06/06 02:32:45;;;;;;;4.65;4.25;;;14.50;99.90;;;;;;4838844;29;20469;-81
2021/06/06 02:35:24;;;;;;;4.50;4.10;;;14.40;99.90;;;;;;4849011;29;20440;-86
2021/06/06 02:38:11;;;;;;;4.85;4.35;;;14.40;99.90;;;;;;4854986;29;20411;-80
2021/06/06 02:40:50;;;;;;;5.63;4.55;;;14.40;99.90;;;;;;4857377;29;20951;-82
2021/06/06 02:43:27;;;;;;;4.45;4.05;;;14.30;99.90;;;;;;4856714;29;20496;-84
2021/06/06 02:45:53;;;;;;;5.03;4.53;;;14.30;99.90;;;;;;4857357;29;20901;-81
2021/06/06 02:48:27;;;;;;;4.75;4.35;;;14.40;99.90;;;;;;4848287;29;20490;-82
2021/06/06 02:50:57;;;;;;;4.72;4.30;;;14.20;99.90;;;;;;4842700;29;20414;-81
2021/06/06 02:53:27;;;;;;;4.90;4.50;;;14.20;99.90;;;;;;4848401;29;20423;-82
2021/06/06 02:55:56;;;;;;;4.93;4.45;;;14.10;99.90;;;;;;4857857;29;20523;-82
2021/06/06 02:58:36;;;;;;;4.88;4.40;;;14.10;99.90;;;;;;4835877;29;20412;-86
2021/06/06 03:01:15;;;;;;;4.78;4.38;;;14.10;99.90;;;;;;4848294;29;20573;-84
2021/06/06 03:03:41;;;;;;;4.75;4.35;;;14.10;99.90;;;;;;4849644;29;20422;-83
2021/06/06 03:06:23;;;;;;;5.45;4.95;;;14.10;99.90;;;;;;4859660;29;20443;-87
2021/06/06 03:08:49;;;;;;;4.72;4.32;;;14.00;99.90;;;;;;4856323;29;20413;-84
2021/06/06 03:11:16;;;;;;;5.18;4.68;;;14.00;99.90;;;;;;4849420;29;20440;-81
2021/06/06 03:13:50;;;;;;;4.43;4.03;;;14.00;99.90;;;;;;4849842;29;20417;-82
2021/06/06 03:16:16;;;;;;;4.80;4.40;;;13.90;99.90;;;;;;4849771;29;20409;-82
2021/06/06 03:18:48;;;;;;;5.20;4.80;;;13.80;99.90;;;;;;4851069;29;20440;-84
2021/06/06 03:21:22;;;;;;;5.30;4.80;;;13.90;99.90;;;;;;4845976;29;20424;-83
2021/06/06 03:24:00;;;;;;;5.03;4.53;;;13.90;99.90;;;;;;4857480;29;20409;-82
2021/06/06 03:26:28;;;;;;;4.97;4.50;;;13.80;99.90;;;;;;4853464;29;20496;-82
2021/06/06 03:28:57;;;;;;;5.20;4.80;;;13.80;99.90;;;;;;4849459;29;20504;-81
2021/06/06 03:31:28;;;;;;;4.88;4.47;;;13.90;99.90;;;;;;4854392;29;20440;-85
2021/06/06 03:33:59;;;;;;;4.80;4.40;;;13.90;99.90;;;;;;4850536;29;20468;-81
2021/06/06 03:36:40;;;;;;;4.73;4.33;;;13.90;99.90;;;;;;4851854;29;20414;-81
2021/06/06 03:39:11;;;;;;;4.82;4.40;;;13.90;99.90;;;;;;4850438;29;21194;-81
2021/06/06 03:41:37;;;;;;;5.18;4.68;;;13.90;99.90;;;;;;4838062;29;20424;-82
2021/06/06 03:44:08;;;;;;;5.03;4.53;;;14.00;99.90;;;;;;4851053;29;20414;-82
2021/06/06 03:46:34;;;;;;;5.00;4.50;;;14.00;99.90;;;;;;4859678;29;20412;-81
2021/06/06 03:49:01;;;;;;;5.15;4.70;;;14.20;99.90;;;;;;4851021;29;20472;-81
2021/06/06 03:51:27;;;;;;;5.25;4.85;;;14.10;99.90;;;;;;4855220;29;20436;-86
2021/06/06 03:53:53;;;;;;;5.13;4.63;;;14.20;99.90;;;;;;4872911;29;20506;-83
2021/06/06 03:56:19;;;;;;;7.10;5.20;;;14.30;99.90;;;;;;4849328;29;21315;-83
2021/06/06 03:58:46;;;;;;;5.32;4.38;;;14.30;99.90;;;;;;4865806;29;20419;-81
2021/06/06 04:01:12;;;;;;;4.82;4.43;;;14.40;99.90;;;;;;4847464;29;20408;-81
2021/06/06 04:03:41;;;;;;;6.95;4.55;;;14.50;99.90;;;;;;4874070;29;20474;-83
2021/06/06 04:06:07;;;;;;;4.88;4.43;;;14.60;99.90;;;;;;4849993;29;20404;-84
2021/06/06 04:08:36;;;;;;;5.10;4.70;;;14.70;99.90;;;;;;4860382;29;20412;-82
2021/06/06 04:11:08;;;;;;;5.38;4.93;;;14.80;99.90;;;;;;4881193;29;20984;-83
2021/06/06 04:13:39;;;;;;;5.07;4.67;;;14.90;99.90;;;;;;4875304;29;20460;-81
2021/06/06 04:16:05;;;;;;;5.65;5.05;;;15.00;99.90;;;;;;4857226;29;20413;-84
2021/06/06 04:18:33;;;;;;;8.00;5.30;;;15.10;99.90;;;;;;4862327;29;20783;-85
2021/06/06 04:21:04;;;;;;;5.88;4.90;;;15.20;99.90;;;;;;4858556;29;20432;-86
2021/06/06 04:23:30;;;;;;;5.90;5.40;;;15.30;99.90;;;;;;4868168;29;20424;-82
2021/06/06 04:25:59;;;;;;;5.47;4.82;;;15.40;99.90;;;;;;4851844;29;20416;-81
2021/06/06 04:28:26;;;;;;;5.43;4.93;;;15.50;99.90;;;;;;4869983;29;20421;-87
2021/06/06 04:30:57;;;;;;;5.63;5.05;;;15.60;99.90;;;;;;4850028;29;20440;-84
2021/06/06 04:33:23;;;;;;;5.40;4.90;;;15.80;99.90;;;;;;4858522;29;20405;-84
2021/06/06 04:35:49;;;;;;;5.50;5.00;;;15.90;99.90;;;;;;4862176;29;20411;-83
2021/06/06 04:38:17;;;;;;;5.35;4.90;;;16.10;99.90;;;;;;4854921;29;20497;-82
2021/06/06 04:40:44;;;;;;;4.93;4.53;;;16.20;99.90;;;;;;4862811;29;20449;-83
2021/06/06 04:43:10;;;;;;;5.50;4.97;;;16.40;99.90;;;;;;4841465;29;20435;-82
2021/06/06 04:45:37;;;;;;;5.35;4.75;;;16.60;99.90;;;;;;4857682;29;20928;-84
2021/06/06 04:48:10;;;;;;;5.10;4.60;;;16.80;99.90;;;;;;4857581;29;20906;-88
2021/06/06 04:50:37;;;;;;;4.80;4.40;;;16.90;99.90;;;;;;4853367;29;20434;-88
2021/06/06 04:53:04;;;;;;;5.50;5.00;;;17.10;99.90;;;;;;4844898;29;20454;-90
2021/06/06 04:55:30;;;;;;;4.43;4.03;;;17.20;99.90;;;;;;4860182;29;20436;-88
2021/06/06 04:57:57;;;;;;;4.95;4.45;;;17.40;99.90;;;;;;4860410;29;20404;-86
2021/06/06 05:00:28;;;;;;;4.57;4.20;;;17.60;99.90;;;;;;4860347;29;20405;-88
2021/06/06 05:02:54;;;;;;;5.05;4.63;;;17.70;99.90;;;;;;4867177;29;20411;-88
2021/06/06 05:05:22;;;;;;;4.90;4.50;;;17.90;99.90;;;;;;4863299;29;20431;-90
2021/06/06 05:07:58;;;;;;;5.30;4.80;;;18.00;99.90;;;;;;4868044;29;20388;-89
2021/06/06 05:10:24;;;;;;;4.85;4.45;;;18.30;99.90;;;;;;4862159;29;20424;-89
2021/06/06 05:12:52;;;;;;;4.90;4.50;;;18.30;99.90;;;;;;4877345;29;20416;-88
2021/06/06 05:15:18;;;;;;;5.10;4.60;;;18.50;99.90;;;;;;4868577;29;20418;-91
2021/06/06 05:17:46;;;;;;;5.85;4.40;;;18.70;99.90;;;;;;4855023;29;20405;-90
2021/06/06 05:20:12;;;;;;;5.03;4.07;;;18.80;99.90;;;;;;4869660;29;20448;-90
2021/06/06 05:22:38;;;;;;;4.88;4.20;;;19.00;99.90;;;;;;4847142;29;20424;-93
2021/06/06 05:25:05;;;;;;;4.80;4.40;;;19.10;99.90;;;;;;4861420;29;20458;-91
2021/06/06 05:27:33;;;;;;;3.90;3.60;;;19.30;99.90;;;;;;4863926;29;20397;-91
2021/06/06 05:29:58;;;;;;;3.77;3.47;;;19.50;99.90;;;;;;4861948;29;20401;-91
2021/06/06 05:32:24;;;;;;;5.13;4.30;;;19.70;99.90;;;;;;4861355;29;20436;-91
2021/06/06 05:34:50;;;;;;;4.70;4.30;;;19.90;99.90;;;;;;4878411;29;20396;-91
2021/06/06 05:37:16;;;;;;;4.30;3.90;;;20.00;99.90;;;;;;4870833;29;20561;-90
2021/06/06 05:39:41;;;;;;;5.05;4.55;;;20.30;99.90;;;;;;4867222;29;20502;-92
2021/06/06 05:42:08;;;;;;;4.78;4.28;;;20.40;99.90;;;;;;4853789;29;20420;-90
2021/06/06 05:44:34;;;;;;;4.70;3.75;;;20.60;99.90;;;;;;4869000;29;20388;-88
2021/06/06 05:47:00;;;;;;;3.97;3.60;;;20.70;99.90;;;;;;4868737;29;20417;-90
2021/06/06 05:49:27;;;;;;;4.72;4.32;;;20.90;99.90;;;;;;4861463;29;20420;-89
2021/06/06 05:52:05;;;;;;;4.60;4.20;;;21.00;99.90;;;;;;4863212;29;20406;-92
2021/06/06 05:54:31;;;;;;;4.27;3.93;;;21.10;99.90;;;;;;4862765;29;20439;-90
2021/06/06 05:56:57;;;;;;;4.72;4.32;;;21.10;99.90;;;;;;4861610;29;20479;-90
2021/06/06 05:59:24;;;;;;;4.60;4.20;;;21.30;99.90;;;;;;4876996;29;20425;-91
2021/06/06 06:01:51;;;;;;;4.40;3.85;;;21.40;99.90;;;;;;4850051;29;20454;-90
2021/06/06 06:04:20;;;;;;;4.43;3.80;;;21.70;99.90;;;;;;4861379;29;20412;-92
2021/06/06 06:06:47;;;;;;;3.55;3.25;;;21.80;99.90;;;;;;4866434;29;20494;-90
2021/06/06 06:09:14;;;;;;;4.20;3.80;;;21.90;99.90;;;;;;4869400;29;20392;-91
2021/06/06 06:11:42;;;;;;;3.53;3.22;;;22.20;99.90;;;;;;4858785;29;20518;-90
2021/06/06 06:14:09;;;;;;;3.88;3.58;;;22.20;99.90;;;;;;4853457;29;20411;-91
2021/06/06 06:16:37;;;;;;;3.42;3.10;;;22.20;99.90;;;;;;4859744;29;20421;-91
2021/06/06 06:19:07;;;;;;;3.90;3.60;;;22.50;99.90;;;;;;4861125;29;20408;-90
2021/06/06 06:21:38;;;;;;;4.20;3.42;;;22.70;99.90;;;;;;4859595;29;20417;-86
2021/06/06 06:24:08;;;;;;;4.07;3.33;;;22.70;99.90;;;;;;4891963;29;20393;-91
2021/06/06 06:26:40;;;;;;;3.33;3.03;;;22.90;99.90;;;;;;4863090;29;20419;-87
2021/06/06 06:29:18;;;;;;;4.00;3.60;;;23.10;99.90;;;;;;4850827;29;20401;-89
2021/06/06 06:32:08;;;;;;;3.70;3.40;;;23.40;99.90;;;;;;4867476;29;20437;-89
2021/06/06 06:34:46;;;;;;;3.22;2.92;;;23.60;99.90;;;;;;4848736;29;20444;-91
2021/06/06 06:37:40;;;;;;;3.90;3.50;;;23.70;99.90;;;;;;4899845;29;20446;-85
2021/06/06 06:40:14;;;;;;;3.90;3.60;;;23.80;99.90;;;;;;4863541;29;20418;-83
2021/06/06 06:42:49;;;;;;;3.67;3.38;;;23.80;99.90;;;;;;4867831;29;20405;-86
2021/06/06 06:45:22;;;;;;;3.95;3.60;;;24.00;99.90;;;;;;4875583;29;20401;-86
2021/06/06 06:48:03;;;;;;;3.20;2.90;;;24.30;99.90;;;;;;4868290;29;20412;-86
2021/06/06 06:50:41;;;;;;;3.53;3.22;;;24.40;99.90;;;;;;4884102;29;20419;-86
2021/06/06 07:03:20;;;;;;;3.03;2.83;;;24.90;99.90;;;;;;5167689;23;20450;-84
2021/06/06 07:37:27;;;;;;;3.15;2.90;;;27.00;99.90;;;;;;4917720;29;20417;-84
2021/06/06 07:40:15;;;;;;;3.42;3.13;;;26.90;99.90;;;;;;4930332;29;20394;-82
2021/06/06 07:42:53;;;;;;;3.42;3.13;;;26.70;99.70;;;;;;4887937;29;20409;-80
2021/06/06 07:45:47;;;;;;;3.60;3.30;;;26.40;99.10;;;;;;4921144;29;20465;-81
2021/06/06 07:48:13;;;;;;;2.75;2.55;;;26.60;99.90;;;;;;4923299;29;20436;-80
2021/06/06 07:50:52;;;;;;;3.13;2.60;;;26.40;98.00;;;;;;4904806;29;20425;-80
2021/06/06 07:54:16;;;;;;;4.20;2.63;;;26.40;99.90;;;;;;4903051;29;20409;-80
2021/06/06 07:56:44;;;;;;;2.63;2.42;;;26.50;98.70;;;;;;4915852;29;20406;-80
2021/06/06 07:59:11;;;;;;;3.63;2.90;;;26.90;99.90;;;;;;4901753;29;20408;-80
2021/06/06 08:01:38;;;;;;;3.13;2.85;;;27.20;97.50;;;;;;4867964;29;20448;-79
2021/06/06 08:04:04;;;;;;;6.23;3.20;;;27.20;96.00;;;;;;4917776;29;20442;-81
2021/06/06 08:06:29;;;;;;;3.05;2.78;;;27.10;96.40;;;;;;4906540;29;20401;-80
2021/06/06 08:08:55;;;;;;;3.03;2.73;;;27.20;94.90;;;;;;4900993;29;20426;-79
2021/06/06 08:11:22;;;;;;;2.80;2.42;;;27.10;94.00;;;;;;4874190;29;20472;-80
2021/06/06 08:13:58;;;;;;;3.10;2.40;;;27.20;94.70;;;;;;4899240;29;20423;-85
2021/06/06 08:16:25;;;;;;;2.40;2.30;;;27.60;95.50;;;;;;4900980;29;20433;-81
2021/06/06 08:18:50;;;;;;;2.53;2.33;;;27.70;92.70;;;;;;4931282;29;20453;-82
2021/06/06 08:21:17;;;;;;;5.90;2.93;;;27.90;93.50;;;;;;4901015;29;20425;-83
2021/06/06 08:23:43;;;;;;;2.83;2.53;;;28.40;93.00;;;;;;4919719;28;20396;-84
2021/06/06 08:26:09;;;;;;;2.47;2.28;;;28.60;91.80;;;;;;4898944;29;20450;-83
2021/06/06 08:28:35;;;;;;;2.10;1.90;;;28.80;91.80;;;;;;4915544;29;20389;-87
2021/06/06 08:31:04;;;;;;;1.87;1.77;;;29.10;90.70;;;;;;4890328;29;20412;-85
2021/06/06 08:33:30;;;;;;;1.83;1.73;;;29.70;88.10;;;;;;4901903;29;20437;-88
2021/06/06 08:35:58;;;;;;;3.38;1.67;;;29.70;89.00;;;;;;4907425;29;20434;-87
2021/06/06 08:38:23;;;;;;;2.07;1.87;;;29.90;82.70;;;;;;4885073;29;20405;-86
2021/06/06 08:41:08;;;;;;;1.90;1.80;;;30.00;81.50;;;;;;4899158;28;20518;-83
2021/06/06 08:43:44;;;;;;;1.90;1.80;;;30.10;78.40;;;;;;4917949;29;20407;-85
2021/06/06 08:46:10;;;;;;;1.80;1.70;;;30.00;75.70;;;;;;4916015;29;20506;-86
2021/06/06 08:48:36;;;;;;;1.98;1.88;;;30.20;71.30;;;;;;4898774;29;20407;-87
2021/06/06 08:51:40;;;;;;;2.00;1.90;;;30.20;73.80;;;;;;4914247;28;20441;-85
2021/06/06 08:54:16;;;;;;;2.00;1.90;;;30.20;70.40;;;;;;4914129;29;20381;-82
2021/06/06 08:56:41;;;;;;;2.30;2.10;;;30.20;69.10;;;;;;4895624;29;20410;-83
2021/06/06 08:59:31;;;;;;;1.75;1.65;;;30.10;69.30;;;;;;4892603;29;21128;-83
2021/06/06 09:02:07;;;;;;;1.90;1.80;;;30.00;70.80;;;;;;4923083;28;20435;-87
2021/06/06 09:04:34;;;;;;;2.90;1.97;;;30.20;68.30;;;;;;4915583;29;20401;-87
2021/06/06 09:07:31;;;;;;;1.70;1.60;;;29.70;71.20;;;;;;4894192;29;20401;-88
2021/06/06 09:10:00;;;;;;;1.77;1.67;;;29.80;68.90;;;;;;4911084;29;20414;-84
2021/06/06 09:12:26;;;;;;;4.47;1.88;;;30.40;69.40;;;;;;4914702;28;20389;-86
2021/06/06 09:14:54;;;;;;;1.90;1.80;;;30.40;61.80;;;;;;4917938;29;20413;-83
2021/06/06 09:17:32;;;;;;;1.73;1.63;;;30.80;62.00;;;;;;4897903;29;20401;-81
2021/06/06 09:19:59;;;;;;;1.92;1.83;;;30.90;60.50;;;;;;4906183;29;20401;-87
2021/06/06 09:22:32;;;;;;;2.20;1.60;;;31.00;58.50;;;;;;4909746;29;20429;-85
2021/06/06 09:25:07;;;;;;;1.50;1.40;;;30.90;59.10;;;;;;4911686;29;20409;-87
2021/06/06 09:27:33;;;;;;;1.90;1.70;;;31.10;57.00;;;;;;4894260;29;20413;-83
2021/06/06 09:30:07;;;;;;;1.63;1.53;;;31.20;57.90;;;;;;4905977;29;20521;-85
2021/06/06 09:32:33;;;;;;;1.70;1.60;;;31.50;56.20;;;;;;4907361;29;20433;-83
2021/06/06 09:35:05;;;;;;;2.33;1.80;;;31.90;56.20;;;;;;4900538;29;20416;-82
2021/06/06 09:37:34;;;;;;;1.40;1.30;;;32.30;55.50;;;;;;4883779;29;20417;-83
2021/06/06 09:40:09;;;;;;;1.85;1.75;;;32.30;56.30;;;;;;4884185;29;20468;-84
2021/06/06 09:42:43;;;;;;;2.83;1.75;;;32.10;55.10;;;;;;4900877;29;20417;-84
2021/06/06 09:45:32;;;;;;;1.50;1.40;;;31.50;53.80;;;;;;4906225;29;20409;-81
2021/06/06 09:48:05;;;;;;;1.73;1.50;;;31.30;53.00;;;;;;4892759;29;20409;-83
2021/06/06 09:50:33;;;;;;;1.50;1.40;;;31.60;53.60;;;;;;4901495;29;20428;-85
2021/06/06 09:53:21;;;;;;;1.58;1.48;;;31.90;52.50;;;;;;4888281;29;20435;-83
2021/06/06 09:55:47;;;;;;;1.40;1.40;;;31.90;51.20;;;;;;4909790;29;20442;-85
2021/06/06 09:58:29;;;;;;;1.10;1.10;;;32.00;53.30;;;;;;4888024;29;20973;-83
2021/06/06 10:00:57;;;;;;;1.50;1.40;;;31.90;49.00;;;;;;4884060;29;20622;-81
2021/06/06 10:03:41;;;;;;;1.45;1.35;;;31.40;49.40;;;;;;4889337;29;20702;-82
2021/06/06 10:06:30;;;;;;;1.33;1.30;;;31.40;51.50;;;;;;4916681;29;20489;-83
2021/06/06 10:09:19;;;;;;;5.15;3.78;;;32.10;51.20;;;;;;4895157;29;20469;-83
2021/06/06 10:12:15;;;;;;;1.23;1.23;;;32.80;49.20;;;;;;4905856;29;20496;-85
2021/06/06 10:14:56;;;;;;;1.48;1.38;;;32.90;48.30;;;;;;4908997;28;20775;-82
2021/06/06 10:17:43;;;;;;;2.20;1.67;;;33.30;48.70;;;;;;4889593;29;20448;-85
2021/06/06 10:20:14;;;;;;;1.40;1.30;;;33.40;47.50;;;;;;4904299;29;20420;-83
2021/06/06 10:22:52;;;;;;;1.70;1.60;;;33.20;47.80;;;;;;4862329;29;20935;-81
2021/06/06 10:25:40;;;;;;;4.93;1.70;;;33.10;46.40;;;;;;4882162;29;20492;-84
2021/06/06 10:28:06;;;;;;;1.45;1.35;;;33.10;46.60;;;;;;4902093;29;20404;-84
2021/06/06 10:31:10;;;;;;;1.70;1.60;;;33.00;45.70;;;;;;4882901;29;20397;-83
2021/06/06 10:33:50;;;;;;;1.50;1.40;;;33.10;47.20;;;;;;4909456;29;20414;-84
2021/06/06 10:36:18;;;;;;;1.80;1.33;;;33.40;45.50;;;;;;4877067;29;20401;-83
2021/06/06 10:38:46;;;;;;;1.40;1.40;;;33.90;45.00;;;;;;4876680;29;20401;-83
2021/06/06 10:41:17;;;;;;;1.50;1.48;;;34.30;44.10;;;;;;4870550;29;20437;-83
2021/06/06 10:43:48;;;;;;;1.58;1.48;;;34.00;42.30;;;;;;4887656;29;20397;-82
2021/06/06 10:46:36;;;;;;;1.80;1.70;;;34.30;44.40;;;;;;4894922;29;20409;-85
2021/06/06 10:49:08;;;;;;;1.70;1.60;;;34.40;44.30;;;;;;4910517;29;20401;-84
2021/06/06 10:51:41;;;;;;;1.70;1.60;;;34.50;44.80;;;;;;4892896;29;20411;-83
2021/06/06 10:54:31;;;;;;;2.10;1.57;;;34.90;45.40;;;;;;4894751;29;20420;-84
2021/06/06 10:56:59;;;;;;;1.60;1.50;;;35.40;42.30;;;;;;4897828;29;20441;-83
2021/06/06 10:59:37;;;;;;;1.55;1.45;;;35.60;43.30;;;;;;4897838;29;20800;-83
2021/06/06 11:02:04;;;;;;;1.57;1.47;;;35.30;42.10;;;;;;4884549;29;20424;-82
2021/06/06 11:04:33;;;;;;;1.20;1.20;;;35.40;41.90;;;;;;4896150;29;21110;-86
2021/06/06 11:07:23;;;;;;;1.60;1.50;;;36.00;41.80;;;;;;4881538;29;20807;-83
2021/06/06 11:10:21;;;;;;;1.23;1.23;;;35.50;38.20;;;;;;4882720;29;20408;-83
2021/06/06 11:12:48;;;;;;;1.55;1.45;;;35.70;42.30;;;;;;4883141;29;20409;-82
2021/06/06 11:15:34;;;;;;;1.50;1.40;;;35.90;41.20;;;;;;4864187;29;20409;-83
2021/06/06 11:18:07;;;;;;;2.80;1.50;;;36.30;41.70;;;;;;4888198;29;20412;-85
2021/06/06 11:20:34;;;;;;;1.58;1.50;;;36.50;41.00;;;;;;4894670;29;20497;-84
2021/06/06 11:23:11;;;;;;;1.67;1.58;;;36.60;41.90;;;;;;4891183;29;20477;-82
2021/06/06 11:25:38;;;;;;;4.00;2.00;;;37.00;41.80;;;;;;4901038;29;20441;-83
2021/06/06 11:28:08;;;;;;;1.42;1.33;;;36.70;40.90;;;;;;4914419;29;20401;-83
2021/06/06 11:30:36;;;;;;;1.30;1.30;;;36.20;38.80;;;;;;4893309;29;20410;-85
2021/06/06 11:33:08;;;;;;;1.60;1.50;;;36.10;39.50;;;;;;4896030;29;20417;-84
2021/06/06 11:35:36;;;;;;;1.48;1.38;;;36.30;37.50;;;;;;4881849;29;20985;-83
2021/06/06 11:38:31;;;;;;;1.30;1.30;;;36.00;38.60;;;;;;4911777;29;20473;-82
2021/06/06 11:41:11;;;;;;;1.60;1.50;;;36.40;39.70;;;;;;4905419;29;20431;-86
2021/06/06 11:44:08;;;;;;;1.60;1.50;;;36.20;39.00;;;;;;4884696;29;21755;-81
2021/06/06 11:46:56;;;;;;;1.50;1.40;;;36.30;40.60;;;;;;4916649;29;20417;-81
2021/06/06 11:49:47;;;;;;;1.20;1.20;;;36.20;38.40;;;;;;4873352;29;20480;-84
2021/06/06 11:52:34;;;;;;;1.50;1.40;;;36.30;38.80;;;;;;4884769;29;20405;-82
2021/06/06 11:55:02;;;;;;;1.70;1.60;;;35.30;36.20;;;;;;4894704;29;20417;-81
2021/06/06 11:57:32;;;;;;;2.38;1.40;;;34.70;38.20;;;;;;4908276;29;20412;-83
2021/06/06 12:00:19;;;;;;;1.40;1.30;;;34.80;37.60;;;;;;4877547;29;20898;-83
2021/06/06 12:02:44;;;;;;;1.40;1.30;;;35.20;39.10;;;;;;4906486;29;20501;-82
2021/06/06 12:05:20;;;;;;;1.20;1.20;;;35.90;41.10;;;;;;4880247;29;20491;-83
2021/06/06 12:07:48;;;;;;;1.73;1.63;;;36.50;39.50;;;;;;4892536;29;20411;-86
2021/06/06 12:10:35;;;;;;;1.50;1.40;;;35.80;36.40;;;;;;4892423;29;21211;-81
2021/06/06 12:13:06;;;;;;;1.70;1.55;;;35.60;36.00;;;;;;4881049;29;20931;-84
2021/06/06 12:15:35;;;;;;;1.80;1.35;;;35.40;34.70;;;;;;4886404;29;20398;-81
2021/06/06 12:18:06;;;;;;;2.30;1.55;;;35.00;35.60;;;;;;4899056;29;20577;-87
2021/06/06 12:20:31;;;;;;;1.65;1.55;;;35.00;35.30;;;;;;4885059;29;21817;-81
2021/06/06 12:23:05;;;;;;;1.30;1.30;;;34.70;39.30;;;;;;4879302;29;20416;-81
2021/06/06 12:25:31;;;;;;;1.20;1.20;;;35.40;38.30;;;;;;4886168;29;20516;-82
2021/06/06 12:28:22;;;;;;;1.13;1.13;;;35.60;39.20;;;;;;4880284;29;20541;-83
2021/06/06 12:30:48;;;;;;;1.42;1.33;;;35.40;37.90;;;;;;4881157;29;20425;-82
2021/06/06 12:33:33;;;;;;;1.50;1.40;;;36.30;39.70;;;;;;4909928;29;20428;-82
2021/06/06 12:36:27;;;;;;;1.98;1.63;;;36.90;37.90;;;;;;4892837;29;20420;-83
2021/06/06 12:38:57;;;;;;;2.80;1.40;;;37.30;34.90;;;;;;4892389;29;20413;-83
2021/06/06 12:41:22;;;;;;;1.38;1.27;;;37.70;35.90;;;;;;4881404;29;20404;-83
2021/06/06 12:43:53;;;;;;;1.33;1.30;;;38.40;34.00;;;;;;4916797;29;20449;-85
2021/06/06 12:46:19;;;;;;;1.30;1.30;;;38.80;36.60;;;;;;4877896;29;20425;-83
2021/06/06 12:49:00;;;;;;;1.73;1.63;;;39.10;34.50;;;;;;4878444;29;20986;-83
2021/06/06 12:51:33;;;;;;;1.50;1.40;;;39.30;33.80;;;;;;4892766;29;20409;-82
2021/06/06 12:54:15;;;;;;;1.30;1.20;;;39.70;35.10;;;;;;4879054;29;20928;-83
2021/06/06 12:56:40;;;;;;;1.10;1.10;;;40.10;34.10;;;;;;4900449;29;20480;-83
2021/06/06 12:59:18;;;;;;;1.40;1.40;;;40.30;33.90;;;;;;4877201;29;20835;-84
2021/06/06 13:01:44;;;;;;;1.50;1.40;;;40.40;32.00;;;;;;4905029;29;20556;-83
2021/06/06 13:04:18;;;;;;;1.30;1.30;;;40.00;30.70;;;;;;4885138;29;21062;-83
2021/06/06 13:06:44;;;;;;;1.30;1.20;;;39.60;32.30;;;;;;4864763;29;20500;-82
2021/06/06 13:09:27;;;;;;;1.50;1.40;;;39.40;32.90;;;;;;4870778;29;20525;-83
2021/06/06 13:12:15;;;;;;;1.40;1.30;;;39.70;33.70;;;;;;4883281;29;20424;-84
2021/06/06 13:14:53;;;;;;;1.40;1.30;;;39.90;29.10;;;;;;4893705;29;20417;-83
2021/06/06 13:17:31;;;;;;;1.63;1.52;;;39.80;31.40;;;;;;4898693;29;20421;-83
2021/06/06 13:20:20;;;;;;;1.40;1.30;;;40.40;31.90;;;;;;4898716;29;20444;-82
2021/06/06 13:23:03;;;;;;;1.40;1.30;;;41.10;32.90;;;;;;4875556;29;20508;-80
2021/06/06 13:25:41;;;;;;;1.70;1.60;;;41.90;32.20;;;;;;4874900;29;20401;-80
2021/06/06 13:28:29;;;;;;;1.48;1.38;;;41.30;30.70;;;;;;4884234;29;20424;-80
2021/06/06 13:31:02;;;;;;;1.40;1.33;;;40.40;31.00;;;;;;4903503;29;20429;-80
2021/06/06 13:33:28;;;;;;;1.60;1.50;;;39.90;31.40;;;;;;4878371;29;20401;-82
2021/06/06 13:35:53;;;;;;;1.60;1.50;;;38.80;31.10;;;;;;4880564;29;20428;-81
2021/06/06 13:38:19;;;;;;;1.70;1.43;;;37.80;33.00;;;;;;4876511;29;20405;-82
2021/06/06 13:40:47;;;;;;;1.52;1.42;;;37.10;33.00;;;;;;4868813;29;20476;-80
2021/06/06 13:43:13;;;;;;;2.45;1.48;;;37.00;34.20;;;;;;4876325;29;20448;-80
2021/06/06 13:45:39;;;;;;;1.30;1.30;;;36.90;34.00;;;;;;4889474;29;20869;-83
2021/06/06 13:48:07;;;;;;;1.67;1.58;;;36.90;34.60;;;;;;4862359;29;20405;-80
2021/06/06 13:50:39;;;;;;;1.75;1.65;;;37.20;35.10;;;;;;4891267;29;20436;-81
2021/06/06 13:53:06;;;;;;;1.30;1.30;;;37.00;31.10;;;;;;4863130;29;20425;-82
2021/06/06 13:55:32;;;;;;;2.00;1.70;;;37.80;34.00;;;;;;4877511;29;21136;-82
2021/06/06 13:57:58;;;;;;;1.58;1.50;;;38.10;32.70;;;;;;4877422;29;20425;-81